Time;durP1;ratioP1;P1;durP2;ratioP2;P2;SDS_P1;SDS_P2;PMS_P1;PMS_P2;Temp;Humidity;BMP_temperature;BMP_pressure;BME280_temperature;BME280_humidity;BME280_pressure;Samples;Min_cycle;Max_cycle;Signal;HPM_P1;HPM_P2
2022/06/17 00:03:01;;;;;;;20.45;7.07;;;;;;;;;;10399335;28;20029;-47
2022/06/17 00:08:02;;;;;;;16.95;5.75;;;;;;;;;;10392589;28;20456;-45
2022/06/17 00:13:03;;;;;;;11.68;5.60;;;;;;;;;;10404125;28;20025;-45
2022/06/17 00:18:03;;;;;;;10.15;6.03;;;;;;;;;;10367043;28;20037;-46
2022/06/17 00:23:11;;;;;;;16.80;5.82;;;;;;;;;;10399166;28;20037;-45
2022/06/17 00:28:18;;;;;;;13.63;6.00;;;;;;;;;;10379831;28;20030;-45
2022/06/17 00:33:19;;;;;;;14.02;8.15;;;;;;;;;;10388540;28;20100;-45
2022/06/17 00:38:23;;;;;;;10.43;6.90;;;;;;;;;;10391227;28;20038;-47
2022/06/17 00:43:33;;;;;;;13.13;7.97;;;;;;;;;;10395876;28;20021;-46
2022/06/17 00:48:44;;;;;;;9.90;6.72;;;;;;;;;;10395533;28;20032;-45
2022/06/17 00:53:50;;;;;;;11.57;5.68;;;;;;;;;;10389220;28;20034;-48
2022/06/17 00:59:15;;;;;;;10.45;6.30;;;;;;;;;;10384348;28;20540;-46
2022/06/17 01:04:41;;;;;;;10.98;7.03;;;;;;;;;;10406190;28;20022;-45
2022/06/17 01:09:57;;;;;;;8.60;6.15;;;;;;;;;;10390969;28;20033;-46
2022/06/17 01:14:58;;;;;;;9.93;6.03;;;;;;;;;;10392463;28;20033;-47
2022/06/17 01:20:02;;;;;;;11.05;6.32;;;;;;;;;;10375956;28;20037;-48
2022/06/17 01:25:07;;;;;;;10.20;6.10;;;;;;;;;;10369630;28;20228;-45
2022/06/17 01:30:14;;;;;;;12.00;6.50;;;;;;;;;;10383140;28;20045;-45
2022/06/17 01:35:15;;;;;;;13.82;6.47;;;;;;;;;;10389359;28;20033;-45
2022/06/17 01:40:18;;;;;;;11.27;7.85;;;;;;;;;;10370081;28;20026;-45
2022/06/17 01:45:18;;;;;;;14.57;9.32;;;;;;;;;;10395122;28;20030;-45
2022/06/17 01:50:26;;;;;;;11.10;8.38;;;;;;;;;;10388945;28;20033;-46
2022/06/17 01:55:28;;;;;;;;;;;;;;;;;;10388172;28;20037;-46
2022/06/17 02:00:30;;;;;;;13.77;7.63;;;;;;;;;;10379706;28;19917;-47
2022/06/17 02:05:33;;;;;;;16.40;7.70;;;;;;;;;;10399652;28;20476;-45
2022/06/17 02:10:39;;;;;;;11.23;6.82;;;;;;;;;;10380647;28;20033;-45
2022/06/17 02:15:40;;;;;;;11.32;6.70;;;;;;;;;;10377629;28;20046;-45
2022/06/17 02:20:42;;;;;;;13.00;7.55;;;;;;;;;;10387258;28;20022;-45
2022/06/17 02:25:48;;;;;;;15.25;7.75;;;;;;;;;;10382979;28;20396;-45
2022/06/17 02:30:51;;;;;;;10.10;6.78;;;;;;;;;;10388454;28;20519;-45
2022/06/17 02:36:25;;;;;;;10.45;6.78;;;;;;;;;;10394851;28;20065;-45
2022/06/17 02:41:26;;;;;;;14.73;7.72;;;;;;;;;;10387204;28;20061;-45
2022/06/17 02:46:32;;;;;;;11.82;7.75;;;;;;;;;;10381408;28;20017;-45
2022/06/17 02:51:38;;;;;;;13.00;8.32;;;;;;;;;;10382372;28;20121;-45
2022/06/17 02:56:48;;;;;;;10.88;7.95;;;;;;;;;;10373039;28;20107;-45
2022/06/17 03:01:54;;;;;;;12.50;8.18;;;;;;;;;;10391446;28;20152;-46
2022/06/17 03:06:55;;;;;;;9.90;7.68;;;;;;;;;;10383964;28;20068;-46
2022/06/17 03:12:17;;;;;;;15.40;8.25;;;;;;;;;;10367124;28;20561;-47
2022/06/17 03:17:21;;;;;;;14.25;9.07;;;;;;;;;;10384496;28;20028;-46
2022/06/17 03:22:23;;;;;;;13.40;9.73;;;;;;;;;;10403865;28;20121;-46
2022/06/17 03:27:37;;;;;;;14.52;9.77;;;;;;;;;;10399497;28;20600;-45
2022/06/17 03:32:42;;;;;;;11.23;8.60;;;;;;;;;;10391979;28;20042;-47
2022/06/17 03:38:36;;;;;;;16.95;9.52;;;;;;;;;;10390601;28;20599;-47
2022/06/17 03:43:44;;;;;;;13.63;9.73;;;;;;;;;;10390361;28;20029;-48
2022/06/17 03:49:07;;;;;;;13.50;9.85;;;;;;;;;;10382140;28;20026;-47
2022/06/17 03:54:14;;;;;;;10.57;9.48;;;;;;;;;;10378503;28;20048;-47
2022/06/17 03:59:29;;;;;;;19.60;10.70;;;;;;;;;;10382669;28;20069;-46
2022/06/17 04:04:36;;;;;;;16.05;8.27;;;;;;;;;;10384801;28;20033;-46
2022/06/17 04:09:41;;;;;;;16.87;6.80;;;;;;;;;;10394781;28;20392;-46
2022/06/17 04:15:01;;;;;;;10.70;6.43;;;;;;;;;;10403227;28;20033;-46
2022/06/17 04:20:25;;;;;;;9.90;6.80;;;;;;;;;;10387212;28;20025;-46
2022/06/17 04:25:48;;;;;;;12.82;6.35;;;;;;;;;;10398978;28;20112;-48
2022/06/17 04:30:59;;;;;;;9.35;6.07;;;;;;;;;;10399693;28;20096;-45
2022/06/17 04:36:07;;;;;;;11.50;5.55;;;;;;;;;;10375161;28;20044;-46
2022/06/17 04:41:07;;;;;;;7.68;5.07;;;;;;;;;;10376696;28;20069;-46
2022/06/17 04:46:08;;;;;;;9.13;5.15;;;;;;;;;;10402897;28;20489;-46
2022/06/17 04:51:10;;;;;;;7.32;4.90;;;;;;;;;;10387245;28;20029;-45
2022/06/17 04:56:32;;;;;;;7.00;5.05;;;;;;;;;;10384939;28;20547;-45
2022/06/17 05:01:33;;;;;;;7.63;4.63;;;;;;;;;;10384455;28;20517;-46
2022/06/17 05:06:33;;;;;;;10.38;5.50;;;;;;;;;;10380151;28;20113;-46
2022/06/17 05:11:40;;;;;;;7.90;5.10;;;;;;;;;;10383746;28;20064;-46
2022/06/17 05:16:41;;;;;;;7.97;5.28;;;;;;;;;;10403798;28;20033;-46
2022/06/17 05:21:41;;;;;;;7.82;4.85;;;;;;;;;;10390528;28;20029;-45
2022/06/17 05:26:42;;;;;;;5.05;4.47;;;;;;;;;;10384690;28;20048;-46
2022/06/17 05:31:49;;;;;;;10.90;5.28;;;;;;;;;;10377426;28;20481;-48
2022/06/17 05:36:52;;;;;;;10.23;4.63;;;;;;;;;;10388199;28;20053;-49
2022/06/17 05:41:52;;;;;;;20.00;6.85;;;;;;;;;;10384057;28;20037;-48
2022/06/17 05:46:53;;;;;;;16.92;7.32;;;;;;;;;;10399319;28;20026;-46
2022/06/17 05:51:53;;;;;;;17.00;7.75;;;;;;;;;;10383003;28;20555;-47
2022/06/17 05:56:54;;;;;;;14.35;7.97;;;;;;;;;;10384742;28;20033;-48
2022/06/17 06:01:55;;;;;;;11.45;8.00;;;;;;;;;;10382630;28;20025;-46
2022/06/17 06:06:55;;;;;;;14.18;8.60;;;;;;;;;;10380463;28;20056;-46
2022/06/17 06:11:56;;;;;;;17.88;8.35;;;;;;;;;;10394383;28;20614;-46
2022/06/17 06:16:56;;;;;;;10.98;7.63;;;;;;;;;;10373689;28;20373;-47
2022/06/17 06:21:57;;;;;;;10.18;7.03;;;;;;;;;;10396330;28;20393;-48
2022/06/17 06:26:57;;;;;;;9.38;6.55;;;;;;;;;;10384791;28;20021;-47
2022/06/17 06:31:58;;;;;;;19.55;6.75;;;;;;;;;;10385784;28;20053;-48
2022/06/17 06:36:59;;;;;;;7.60;5.57;;;;;;;;;;10381011;28;20112;-49
2022/06/17 06:41:59;;;;;;;11.88;6.45;;;;;;;;;;10377235;28;20038;-49
2022/06/17 06:47:00;;;;;;;9.65;5.70;;;;;;;;;;10380229;28;20034;-47
2022/06/17 06:52:01;;;;;;;10.15;5.95;;;;;;;;;;10380107;28;20039;-49
2022/06/17 06:57:02;;;;;;;7.03;6.30;;;;;;;;;;10385256;28;20045;-49
2022/06/17 07:02:03;;;;;;;9.43;6.15;;;;;;;;;;10380319;28;20056;-47
2022/06/17 07:07:05;;;;;;;10.40;5.63;;;;;;;;;;10386226;28;20029;-47
2022/06/17 07:12:06;;;;;;;12.75;5.22;;;;;;;;;;10394907;28;20068;-49
2022/06/17 07:17:09;;;;;;;10.80;6.43;;;;;;;;;;10406648;28;20036;-49
2022/06/17 07:22:10;;;;;;;10.00;5.90;;;;;;;;;;10375770;28;20042;-49
2022/06/17 07:27:11;;;;;;;7.35;5.38;;;;;;;;;;10392168;28;20033;-47
2022/06/17 07:32:11;;;;;;;7.60;5.53;;;;;;;;;;10392851;28;20484;-47
2022/06/17 07:42:37;;;;;;;11.55;5.70;;;;;;;;;;10393559;28;20154;-48
2022/06/17 07:47:40;;;;;;;8.18;6.07;;;;;;;;;;10399579;28;20060;-49
2022/06/17 07:52:40;;;;;;;6.03;5.20;;;;;;;;;;10399613;28;20144;-49
2022/06/17 07:57:45;;;;;;;8.25;5.55;;;;;;;;;;10401297;28;20674;-49
2022/06/17 08:02:46;;;;;;;6.22;5.45;;;;;;;;;;10382215;28;20477;-47
2022/06/17 08:07:46;;;;;;;9.95;6.18;;;;;;;;;;10387511;28;20014;-49
2022/06/17 08:12:47;;;;;;;9.45;5.57;;;;;;;;;;10389494;28;20497;-49
2022/06/17 08:17:48;;;;;;;8.20;5.95;;;;;;;;;;10385603;28;20041;-46
2022/06/17 08:22:49;;;;;;;8.63;5.85;;;;;;;;;;10396417;28;20381;-49
2022/06/17 08:27:55;;;;;;;7.53;5.60;;;;;;;;;;10396644;28;20718;-47
2022/06/17 08:32:56;;;;;;;7.88;5.60;;;;;;;;;;10399137;28;20049;-48
2022/06/17 08:38:02;;;;;;;11.85;5.78;;;;;;;;;;10394002;28;20061;-51
2022/06/17 08:43:31;;;;;;;8.10;5.40;;;;;;;;;;10385072;28;20026;-53
2022/06/17 08:49:12;;;;;;;6.97;5.60;;;;;;;;;;10372771;28;20109;-51
2022/06/17 08:54:43;;;;;;;12.23;6.00;;;;;;;;;;10396526;28;20099;-49
2022/06/17 09:00:06;;;;;;;11.52;6.45;;;;;;;;;;10409657;28;20087;-51
2022/06/17 09:05:33;;;;;;;14.02;6.22;;;;;;;;;;10392893;28;20405;-46
2022/06/17 09:10:50;;;;;;;;;;;;;;;;;;10388689;28;20033;-46
2022/06/17 09:16:12;;;;;;;13.13;6.25;;;;;;;;;;10406467;28;19921;-48
2022/06/17 09:21:23;;;;;;;13.50;6.85;;;;;;;;;;10384139;28;20042;-46
2022/06/17 09:26:29;;;;;;;11.85;6.80;;;;;;;;;;10380923;28;20029;-50
2022/06/17 09:31:41;;;;;;;18.20;6.80;;;;;;;;;;10383664;28;20289;-50
2022/06/17 09:36:50;;;;;;;11.18;6.72;;;;;;;;;;10371318;28;20140;-45
2022/06/17 09:42:00;;;;;;;13.60;7.45;;;;;;;;;;10372931;28;20041;-46
2022/06/17 09:47:19;;;;;;;24.02;7.57;;;;;;;;;;10373198;28;20049;-48
2022/06/17 09:52:32;;;;;;;12.70;7.25;;;;;;;;;;10381785;28;20072;-48
2022/06/17 09:57:50;;;;;;;13.65;7.55;;;;;;;;;;10373805;28;20512;-47
2022/06/17 10:03:34;;;;;;;;;;;;;;;;;;10389337;28;20392;-51
2022/06/17 10:08:58;;;;;;;13.55;6.85;;;;;;;;;;10413653;28;20486;-50
2022/06/17 10:14:38;;;;;;;15.32;7.35;;;;;;;;;;10384162;28;20124;-49
2022/06/17 10:20:06;;;;;;;21.85;6.88;;;;;;;;;;10379680;28;20029;-50
2022/06/17 10:25:12;;;;;;;12.38;6.97;;;;;;;;;;10404099;28;20508;-50
2022/06/17 10:30:37;;;;;;;8.82;6.80;;;;;;;;;;10380582;28;20436;-48
2022/06/17 10:35:40;;;;;;;13.75;7.20;;;;;;;;;;10389377;28;20087;-48
2022/06/17 10:40:41;;;;;;;11.18;6.93;;;;;;;;;;10393603;28;20033;-52
2022/06/17 10:45:42;;;;;;;12.55;6.35;;;;;;;;;;10390194;28;20018;-46
2022/06/17 10:50:43;;;;;;;11.75;6.35;;;;;;;;;;10390573;28;20381;-49
2022/06/17 10:55:55;;;;;;;14.30;6.90;;;;;;;;;;10380739;28;20630;-48
2022/06/17 11:01:15;;;;;;;9.70;5.93;;;;;;;;;;10394537;28;20021;-48
2022/06/17 11:06:20;;;;;;;7.35;6.32;;;;;;;;;;10394204;28;20037;-49
2022/06/17 11:17:29;;;;;;;7.90;6.82;;;;;;;;;;10399692;28;20033;-46
2022/06/17 11:22:39;;;;;;;7.13;6.43;;;;;;;;;;10400129;28;20081;-47
2022/06/17 11:27:50;;;;;;;7.00;6.00;;;;;;;;;;10392317;28;20030;-51
2022/06/17 11:32:51;;;;;;;14.35;6.68;;;;;;;;;;10387092;28;20235;-51
2022/06/17 11:37:54;;;;;;;9.38;5.88;;;;;;;;;;10401594;28;20511;-49
2022/06/17 11:42:57;;;;;;;13.60;6.60;;;;;;;;;;10378609;28;20025;-47
2022/06/17 11:48:11;;;;;;;8.95;6.32;;;;;;;;;;10394342;28;20018;-47
2022/06/17 11:53:16;;;;;;;10.38;6.07;;;;;;;;;;10393127;28;20041;-48
2022/06/17 11:58:19;;;;;;;9.02;6.03;;;;;;;;;;10394799;28;20041;-49
2022/06/17 12:03:39;;;;;;;12.05;6.22;;;;;;;;;;10391442;28;20036;-48
2022/06/17 12:08:52;;;;;;;10.40;6.07;;;;;;;;;;10373920;28;20125;-49
2022/06/17 12:14:00;;;;;;;14.15;6.10;;;;;;;;;;10388935;28;20382;-49
2022/06/17 12:19:01;;;;;;;9.88;6.63;;;;;;;;;;10388147;28;20063;-48
2022/06/17 12:24:24;;;;;;;8.45;5.90;;;;;;;;;;10386626;28;20033;-48
2022/06/17 12:29:49;;;;;;;15.98;6.70;;;;;;;;;;10400124;28;20030;-48
2022/06/17 12:35:05;;;;;;;11.05;6.15;;;;;;;;;;10397627;28;20080;-47
2022/06/17 12:40:23;;;;;;;11.05;6.13;;;;;;;;;;10403480;28;20051;-49
2022/06/17 12:45:27;;;;;;;7.22;5.15;;;;;;;;;;10402828;28;20040;-49
2022/06/17 12:56:28;;;;;;;11.75;6.10;;;;;;;;;;10403237;28;20037;-46
2022/06/17 13:01:48;;;;;;;12.23;5.93;;;;;;;;;;10395114;28;20037;-50
2022/06/17 13:07:31;;;;;;;12.00;5.68;;;;;;;;;;10384564;28;20037;-49
2022/06/17 13:12:39;;;;;;;10.77;6.10;;;;;;;;;;10409365;28;20037;-48
2022/06/17 13:18:00;;;;;;;;;;;;;;;;;;10391068;28;20049;-49
2022/06/17 13:23:34;;;;;;;8.75;5.30;;;;;;;;;;10395949;28;19917;-49
2022/06/17 13:29:00;;;;;;;15.95;5.72;;;;;;;;;;10390362;28;20073;-50
2022/06/17 13:34:27;;;;;;;11.35;5.93;;;;;;;;;;10389445;28;20065;-50
2022/06/17 13:39:32;;;;;;;9.63;5.13;;;;;;;;;;10405918;28;20056;-52
2022/06/17 13:45:10;;;;;;;11.02;5.80;;;;;;;;;;10373282;28;20038;-48
2022/06/17 13:50:44;;;;;;;;;;;;;;;;;;10376177;28;20548;-48
2022/06/17 13:55:47;;;;;;;8.48;5.57;;;;;;;;;;10405830;28;20352;-48
2022/06/17 14:01:25;;;;;;;9.50;5.28;;;;;;;;;;10371895;28;20469;-50
2022/06/17 14:06:30;;;;;;;;;;;;;;;;;;10392313;28;20037;-48
2022/06/17 14:11:45;;;;;;;9.70;5.00;;;;;;;;;;10394162;28;19959;-50
2022/06/17 14:16:57;;;;;;;10.07;5.15;;;;;;;;;;10380613;28;20034;-48
2022/06/17 14:21:59;;;;;;;10.93;5.10;;;;;;;;;;10379416;28;20017;-50
2022/06/17 14:27:00;;;;;;;6.75;5.13;;;;;;;;;;10413332;28;20033;-51
2022/06/17 14:32:47;;;;;;;12.10;5.30;;;;;;;;;;10373531;28;20046;-48
2022/06/17 14:37:49;;;;;;;9.73;5.57;;;;;;;;;;10399610;28;20047;-52
2022/06/17 14:43:04;;;;;;;9.75;5.15;;;;;;;;;;10374705;28;20026;-51
2022/06/17 14:48:11;;;;;;;16.13;5.57;;;;;;;;;;10372641;28;20059;-47
2022/06/17 14:53:12;;;;;;;10.95;5.10;;;;;;;;;;10401367;28;20420;-48
2022/06/17 14:58:14;;;;;;;10.17;5.30;;;;;;;;;;10391540;28;20033;-48
2022/06/17 15:03:21;;;;;;;11.05;5.60;;;;;;;;;;10406450;28;20551;-50
2022/06/17 15:08:38;;;;;;;14.98;6.80;;;;;;;;;;10373926;28;20034;-49
2022/06/17 15:18:59;;;;;;;25.35;6.35;;;;;;;;;;10405026;28;20042;-48
2022/06/17 15:24:54;;;;;;;12.43;5.30;;;;;;;;;;10387731;28;20037;-48
2022/06/17 15:30:16;;;;;;;13.77;4.97;;;;;;;;;;10381888;28;20496;-49
2022/06/17 15:35:23;;;;;;;14.30;5.30;;;;;;;;;;10390018;28;20038;-48
2022/06/17 15:40:29;;;;;;;9.05;5.10;;;;;;;;;;10379862;28;20064;-49
2022/06/17 15:45:30;;;;;;;8.88;5.03;;;;;;;;;;10366884;28;20036;-47
2022/06/17 15:50:44;;;;;;;13.55;5.13;;;;;;;;;;10369592;28;20021;-49
2022/06/17 15:55:45;;;;;;;9.13;5.07;;;;;;;;;;10377859;28;20030;-49
2022/06/17 16:00:47;;;;;;;21.70;5.22;;;;;;;;;;10387836;28;20370;-50
2022/06/17 16:05:52;;;;;;;14.30;5.30;;;;;;;;;;10401906;28;20064;-47
2022/06/17 16:11:09;;;;;;;9.23;5.00;;;;;;;;;;10399478;28;20036;-48
2022/06/17 16:16:19;;;;;;;19.33;5.57;;;;;;;;;;10396540;28;20041;-49
2022/06/17 16:21:25;;;;;;;11.60;5.97;;;;;;;;;;10402440;28;20428;-54
2022/06/17 16:26:26;;;;;;;11.27;5.25;;;;;;;;;;10389582;28;20021;-56
2022/06/17 16:31:29;;;;;;;10.77;5.28;;;;;;;;;;10384753;28;20041;-53
2022/06/17 16:36:35;;;;;;;12.90;5.47;;;;;;;;;;10396711;28;20045;-57
2022/06/17 16:47:11;;;;;;;14.18;5.57;;;;;;;;;;10385034;28;20034;-53
2022/06/17 16:52:24;;;;;;;17.00;4.90;;;;;;;;;;10408333;28;20035;-52
2022/06/17 16:57:35;;;;;;;8.00;4.82;;;;;;;;;;10395514;28;20512;-55
2022/06/17 17:02:36;;;;;;;8.50;5.28;;;;;;;;;;10378984;28;20026;-57
2022/06/17 17:07:38;;;;;;;7.00;5.00;;;;;;;;;;10408377;28;20425;-48
2022/06/17 17:12:41;;;;;;;8.93;4.63;;;;;;;;;;10407389;28;20075;-48
2022/06/17 17:17:43;;;;;;;11.18;4.47;;;;;;;;;;10387894;28;20090;-57
2022/06/17 17:22:50;;;;;;;5.72;4.13;;;;;;;;;;10397081;28;20022;-57
2022/06/17 17:27:52;;;;;;;4.83;4.20;;;;;;;;;;10391186;28;20033;-55
2022/06/17 17:32:53;;;;;;;7.47;4.00;;;;;;;;;;10384333;28;20623;-57
2022/06/17 17:37:54;;;;;;;9.93;4.20;;;;;;;;;;10393888;28;20030;-56
2022/06/17 17:42:55;;;;;;;8.00;4.43;;;;;;;;;;10402619;28;20108;-57
2022/06/17 17:47:56;;;;;;;10.20;4.20;;;;;;;;;;10392863;28;20038;-57
2022/06/17 17:52:56;;;;;;;8.43;4.00;;;;;;;;;;10397718;28;20405;-56
2022/06/17 17:58:07;;;;;;;8.00;3.75;;;;;;;;;;10406197;28;20025;-53
2022/06/17 18:03:08;;;;;;;7.57;3.60;;;;;;;;;;10395605;28;20079;-57
2022/06/17 18:08:09;;;;;;;5.10;3.55;;;;;;;;;;10388481;28;20033;-48
2022/06/17 18:13:12;;;;;;;7.40;3.30;;;;;;;;;;10384229;28;20033;-48
2022/06/17 18:18:18;;;;;;;10.18;3.60;;;;;;;;;;10381452;28;20500;-48
2022/06/17 18:23:19;;;;;;;6.05;3.45;;;;;;;;;;10399601;28;20029;-47
2022/06/17 18:28:20;;;;;;;7.57;3.17;;;;;;;;;;10403446;28;20469;-49
2022/06/17 18:33:27;;;;;;;11.88;3.78;;;;;;;;;;10398344;28;20512;-49
2022/06/17 18:38:27;;;;;;;15.60;3.60;;;;;;;;;;10389880;28;20071;-54
2022/06/17 18:43:28;;;;;;;8.73;3.75;;;;;;;;;;10395761;28;20025;-48
2022/06/17 18:48:29;;;;;;;7.15;3.30;;;;;;;;;;10395905;28;20021;-47
2022/06/17 18:53:30;;;;;;;10.10;3.58;;;;;;;;;;10393121;28;20013;-52
2022/06/17 18:58:31;;;;;;;9.43;3.72;;;;;;;;;;10390934;28;20037;-48
2022/06/17 19:03:35;;;;;;;21.60;3.88;;;;;;;;;;10380179;28;20032;-46
2022/06/17 19:19:14;;;;;;;9.93;4.00;;;;;;;;;;10383296;28;20034;-46
2022/06/17 19:24:16;;;;;;;6.07;3.85;;;;;;;;;;10381391;28;20030;-45
2022/06/17 19:29:20;;;;;;;7.47;3.92;;;;;;;;;;10401569;28;20086;-46
2022/06/17 19:34:29;;;;;;;5.10;3.10;;;;;;;;;;10380332;28;20045;-46
2022/06/17 19:39:30;;;;;;;4.97;3.45;;;;;;;;;;10401445;28;20060;-47
2022/06/17 19:44:33;;;;;;;6.80;3.70;;;;;;;;;;10393466;28;20038;-46
2022/06/17 19:49:41;;;;;;;4.95;3.15;;;;;;;;;;10394588;28;20388;-46
2022/06/17 19:54:41;;;;;;;8.15;2.80;;;;;;;;;;10393057;28;20058;-45
2022/06/17 19:59:42;;;;;;;3.92;2.88;;;;;;;;;;10387114;28;20035;-46
2022/06/17 20:04:43;;;;;;;9.55;2.90;;;;;;;;;;10403413;28;20037;-47
2022/06/17 20:09:44;;;;;;;3.60;2.58;;;;;;;;;;10416416;28;20030;-46
2022/06/17 20:14:45;;;;;;;8.30;3.00;;;;;;;;;;10381807;28;20026;-45
2022/06/17 20:19:46;;;;;;;6.38;2.58;;;;;;;;;;10392222;28;20371;-46
2022/06/17 20:24:51;;;;;;;7.60;2.80;;;;;;;;;;10394322;28;20026;-46
2022/06/17 20:29:53;;;;;;;11.52;2.97;;;;;;;;;;10393510;28;20046;-47
2022/06/17 20:34:54;;;;;;;3.92;2.55;;;;;;;;;;10387681;28;20432;-46
2022/06/17 20:39:55;;;;;;;5.10;2.92;;;;;;;;;;10395496;28;20056;-46
2022/06/17 20:50:17;;;;;;;5.07;2.72;;;;;;;;;;10394497;28;20025;-46
2022/06/17 20:55:35;;;;;;;8.02;2.47;;;;;;;;;;10378534;28;20481;-47
2022/06/17 21:00:50;;;;;;;5.85;2.63;;;;;;;;;;10399209;28;20392;-46
2022/06/17 21:05:56;;;;;;;11.27;3.03;;;;;;;;;;10399619;28;20025;-45
2022/06/17 21:11:04;;;;;;;6.95;3.00;;;;;;;;;;10386849;28;20079;-46
2022/06/17 21:16:08;;;;;;;5.70;3.13;;;;;;;;;;10407042;28;20030;-45
2022/06/17 21:21:23;;;;;;;7.03;2.30;;;;;;;;;;10404400;28;20021;-48
2022/06/17 21:26:28;;;;;;;6.93;2.63;;;;;;;;;;10395199;28;20029;-45
2022/06/17 21:31:29;;;;;;;5.28;2.70;;;;;;;;;;10404071;28;20057;-46
2022/06/17 21:36:31;;;;;;;3.33;2.70;;;;;;;;;;10381680;28;20034;-45
2022/06/17 21:41:33;;;;;;;4.70;2.83;;;;;;;;;;10378031;28;20363;-45
2022/06/17 21:46:34;;;;;;;4.43;2.97;;;;;;;;;;10384044;28;20108;-46
2022/06/17 21:51:49;;;;;;;12.60;3.03;;;;;;;;;;10392635;28;20037;-46
2022/06/17 21:56:50;;;;;;;5.90;2.70;;;;;;;;;;10386859;28;20529;-46
2022/06/17 22:01:51;;;;;;;6.28;2.65;;;;;;;;;;10391250;28;20041;-47
2022/06/17 22:06:52;;;;;;;3.67;2.75;;;;;;;;;;10375123;28;20496;-46
2022/06/17 22:11:59;;;;;;;3.22;2.50;;;;;;;;;;10386512;28;20080;-46
2022/06/17 22:17:05;;;;;;;5.50;2.40;;;;;;;;;;10377564;28;20105;-47
2022/06/17 22:22:29;;;;;;;6.00;2.85;;;;;;;;;;10369510;28;20030;-45
2022/06/17 22:27:30;;;;;;;6.72;2.40;;;;;;;;;;10380619;28;20034;-46
2022/06/17 22:32:36;;;;;;;6.63;2.80;;;;;;;;;;10406953;28;20045;-47
2022/06/17 22:37:37;;;;;;;4.53;2.55;;;;;;;;;;10389054;28;20038;-45
2022/06/17 22:42:38;;;;;;;5.45;2.92;;;;;;;;;;10399759;28;20033;-47
2022/06/17 22:47:40;;;;;;;6.10;2.88;;;;;;;;;;10378973;28;20034;-47
2022/06/17 22:52:41;;;;;;;3.90;2.72;;;;;;;;;;10370576;28;20022;-48
2022/06/17 22:57:41;;;;;;;4.93;3.03;;;;;;;;;;10374368;28;20389;-46
2022/06/17 23:02:43;;;;;;;8.55;2.88;;;;;;;;;;10378542;28;20109;-47
2022/06/17 23:07:45;;;;;;;20.30;3.70;;;;;;;;;;10374868;28;20037;-45
2022/06/17 23:12:48;;;;;;;16.05;3.53;;;;;;;;;;10387516;28;20068;-46
2022/06/17 23:23:17;;;;;;;13.77;3.50;;;;;;;;;;10391573;28;20057;-46
2022/06/17 23:28:20;;;;;;;17.48;3.53;;;;;;;;;;10394839;28;20054;-45
2022/06/17 23:33:25;;;;;;;17.88;3.63;;;;;;;;;;10377472;28;20049;-46
2022/06/17 23:38:26;;;;;;;12.88;3.60;;;;;;;;;;10376504;28;20485;-46
2022/06/17 23:43:26;;;;;;;13.63;3.30;;;;;;;;;;10376991;28;20084;-46
2022/06/17 23:48:32;;;;;;;18.13;3.10;;;;;;;;;;10377607;28;20040;-47
2022/06/17 23:53:34;;;;;;;13.45;3.20;;;;;;;;;;10383708;28;20489;-46
2022/06/17 23:58:57;;;;;;;11.75;3.30;;;;;;;;;;10384708;28;20035;-46
